sensor_id;sensor_type;location;lat;lon;timestamp;P1;durP1;ratioP1;P2;durP2;ratioP2
72127;SDS011;60000;51.030;7.024;2023-06-22T01:03:29;4.57;;;1.80;;
72127;SDS011;60000;51.030;7.024;2023-06-22T01:05:56;4.70;;;1.83;;
72127;SDS011;60000;51.030;7.024;2023-06-22T01:11:36;5.28;;;1.83;;
72127;SDS011;60000;51.030;7.024;2023-06-22T01:14:06;4.38;;;1.77;;
72127;SDS011;60000;51.030;7.024;2023-06-22T01:16:37;5.07;;;1.70;;
72127;SDS011;60000;51.030;7.024;2023-06-22T01:21:43;3.95;;;1.50;;
72127;SDS011;60000;51.030;7.024;2023-06-22T01:27:26;5.38;;;1.80;;
72127;SDS011;60000;51.030;7.024;2023-06-22T01:29:58;4.40;;;1.80;;
72127;SDS011;60000;51.030;7.024;2023-06-22T01:32:28;4.67;;;1.80;;
72127;SDS011;60000;51.030;7.024;2023-06-22T01:34:56;4.70;;;1.80;;
72127;SDS011;60000;51.030;7.024;2023-06-22T01:37:24;5.25;;;2.05;;
72127;SDS011;60000;51.030;7.024;2023-06-22T01:39:50;4.72;;;1.90;;
72127;SDS011;60000;51.030;7.024;2023-06-22T01:42:16;5.00;;;1.50;;
72127;SDS011;60000;51.030;7.024;2023-06-22T01:44:42;3.83;;;1.60;;
72127;SDS011;60000;51.030;7.024;2023-06-22T01:47:08;4.33;;;1.60;;
72127;SDS011;60000;51.030;7.024;2023-06-22T01:49:33;5.05;;;1.67;;
72127;SDS011;60000;51.030;7.024;2023-06-22T01:51:59;4.20;;;1.70;;
72127;SDS011;60000;51.030;7.024;2023-06-22T01:54:24;5.00;;;2.20;;
72127;SDS011;60000;51.030;7.024;2023-06-22T01:56:49;4.63;;;1.87;;
72127;SDS011;60000;51.030;7.024;2023-06-22T01:59:20;4.90;;;1.80;;
72127;SDS011;60000;51.030;7.024;2023-06-22T02:02:02;4.70;;;1.90;;
72127;SDS011;60000;51.030;7.024;2023-06-22T02:04:34;4.22;;;1.50;;
72127;SDS011;60000;51.030;7.024;2023-06-22T02:07:09;4.97;;;1.88;;
72127;SDS011;60000;51.030;7.024;2023-06-22T02:09:39;3.40;;;1.60;;
72127;SDS011;60000;51.030;7.024;2023-06-22T02:12:07;4.43;;;1.97;;
72127;SDS011;60000;51.030;7.024;2023-06-22T02:14:35;4.85;;;1.85;;
72127;SDS011;60000;51.030;7.024;2023-06-22T02:17:02;5.57;;;1.58;;
72127;SDS011;60000;51.030;7.024;2023-06-22T02:19:27;4.72;;;1.70;;
72127;SDS011;60000;51.030;7.024;2023-06-22T02:21:53;4.10;;;1.50;;
72127;SDS011;60000;51.030;7.024;2023-06-22T02:24:18;4.27;;;1.70;;
72127;SDS011;60000;51.030;7.024;2023-06-22T02:26:43;4.80;;;1.70;;
72127;SDS011;60000;51.030;7.024;2023-06-22T02:29:10;4.15;;;1.60;;
72127;SDS011;60000;51.030;7.024;2023-06-22T02:31:35;4.43;;;1.60;;
72127;SDS011;60000;51.030;7.024;2023-06-22T02:34:01;4.47;;;1.30;;
72127;SDS011;60000;51.030;7.024;2023-06-22T02:36:26;3.65;;;1.30;;
72127;SDS011;60000;51.030;7.024;2023-06-22T02:38:52;5.67;;;1.60;;
72127;SDS011;60000;51.030;7.024;2023-06-22T02:41:19;3.50;;;1.30;;
72127;SDS011;60000;51.030;7.024;2023-06-22T02:43:44;3.47;;;1.33;;
72127;SDS011;60000;51.030;7.024;2023-06-22T02:46:13;3.70;;;1.20;;
72127;SDS011;60000;51.030;7.024;2023-06-22T02:48:41;3.60;;;1.40;;
72127;SDS011;60000;51.030;7.024;2023-06-22T02:51:07;3.27;;;1.20;;
72127;SDS011;60000;51.030;7.024;2023-06-22T02:53:32;3.10;;;1.10;;
72127;SDS011;60000;51.030;7.024;2023-06-22T02:55:58;3.17;;;1.20;;
72127;SDS011;60000;51.030;7.024;2023-06-22T02:58:23;3.93;;;1.40;;
72127;SDS011;60000;51.030;7.024;2023-06-22T03:00:49;3.60;;;1.33;;
72127;SDS011;60000;51.030;7.024;2023-06-22T03:03:18;3.30;;;1.17;;
72127;SDS011;60000;51.030;7.024;2023-06-22T03:05:43;3.10;;;1.17;;
72127;SDS011;60000;51.030;7.024;2023-06-22T03:08:09;3.90;;;1.30;;
72127;SDS011;60000;51.030;7.024;2023-06-22T03:10:34;3.77;;;1.20;;
72127;SDS011;60000;51.030;7.024;2023-06-22T03:12:59;2.92;;;1.08;;
72127;SDS011;60000;51.030;7.024;2023-06-22T03:15:25;3.33;;;1.33;;
72127;SDS011;60000;51.030;7.024;2023-06-22T03:17:51;3.63;;;1.20;;
72127;SDS011;60000;51.030;7.024;2023-06-22T03:20:16;3.00;;;1.20;;
72127;SDS011;60000;51.030;7.024;2023-06-22T03:22:41;3.53;;;1.23;;
72127;SDS011;60000;51.030;7.024;2023-06-22T03:25:07;2.63;;;1.20;;
72127;SDS011;60000;51.030;7.024;2023-06-22T03:27:43;4.25;;;1.25;;
72127;SDS011;60000;51.030;7.024;2023-06-22T03:30:13;3.90;;;1.20;;
72127;SDS011;60000;51.030;7.024;2023-06-22T03:32:38;3.37;;;1.30;;
72127;SDS011;60000;51.030;7.024;2023-06-22T03:35:04;4.00;;;1.47;;
72127;SDS011;60000;51.030;7.024;2023-06-22T03:37:31;3.65;;;1.52;;
72127;SDS011;60000;51.030;7.024;2023-06-22T03:39:56;3.43;;;1.30;;
72127;SDS011;60000;51.030;7.024;2023-06-22T03:42:22;3.70;;;1.15;;
72127;SDS011;60000;51.030;7.024;2023-06-22T03:44:47;4.00;;;1.50;;
72127;SDS011;60000;51.030;7.024;2023-06-22T03:47:12;3.53;;;1.37;;
72127;SDS011;60000;51.030;7.024;2023-06-22T03:49:38;3.87;;;1.40;;
72127;SDS011;60000;51.030;7.024;2023-06-22T03:52:04;4.05;;;1.55;;
72127;SDS011;60000;51.030;7.024;2023-06-22T03:54:30;4.55;;;1.40;;
72127;SDS011;60000;51.030;7.024;2023-06-22T03:56:57;4.30;;;1.40;;
72127;SDS011;60000;51.030;7.024;2023-06-22T03:59:23;4.15;;;1.60;;
72127;SDS011;60000;51.030;7.024;2023-06-22T04:01:49;3.83;;;1.37;;
72127;SDS011;60000;51.030;7.024;2023-06-22T04:04:15;4.23;;;1.50;;
72127;SDS011;60000;51.030;7.024;2023-06-22T04:06:40;3.57;;;1.40;;
72127;SDS011;60000;51.030;7.024;2023-06-22T04:09:05;5.78;;;1.45;;
72127;SDS011;60000;51.030;7.024;2023-06-22T04:11:31;4.60;;;1.70;;
72127;SDS011;60000;51.030;7.024;2023-06-22T04:13:57;3.53;;;1.40;;
72127;SDS011;60000;51.030;7.024;2023-06-22T04:16:22;3.53;;;1.45;;
72127;SDS011;60000;51.030;7.024;2023-06-22T04:18:47;4.03;;;1.40;;
72127;SDS011;60000;51.030;7.024;2023-06-22T04:21:13;4.53;;;1.60;;
72127;SDS011;60000;51.030;7.024;2023-06-22T04:23:38;4.30;;;1.50;;
72127;SDS011;60000;51.030;7.024;2023-06-22T04:26:04;3.10;;;1.27;;
72127;SDS011;60000;51.030;7.024;2023-06-22T04:28:29;4.28;;;1.60;;
72127;SDS011;60000;51.030;7.024;2023-06-22T04:30:54;3.03;;;1.20;;
72127;SDS011;60000;51.030;7.024;2023-06-22T04:33:23;3.90;;;1.40;;
72127;SDS011;60000;51.030;7.024;2023-06-22T04:35:48;3.88;;;1.48;;
72127;SDS011;60000;51.030;7.024;2023-06-22T04:38:13;3.67;;;1.30;;
72127;SDS011;60000;51.030;7.024;2023-06-22T04:40:39;3.43;;;1.30;;
72127;SDS011;60000;51.030;7.024;2023-06-22T04:43:05;4.20;;;1.90;;
72127;SDS011;60000;51.030;7.024;2023-06-22T04:45:31;3.87;;;1.57;;
72127;SDS011;60000;51.030;7.024;2023-06-22T04:47:57;3.75;;;1.55;;
72127;SDS011;60000;51.030;7.024;2023-06-22T04:50:23;5.50;;;2.10;;
72127;SDS011;60000;51.030;7.024;2023-06-22T04:52:48;4.87;;;2.30;;
72127;SDS011;60000;51.030;7.024;2023-06-22T04:55:14;4.37;;;1.87;;
72127;SDS011;60000;51.030;7.024;2023-06-22T04:57:43;4.75;;;1.92;;
72127;SDS011;60000;51.030;7.024;2023-06-22T05:00:09;4.97;;;2.03;;
72127;SDS011;60000;51.030;7.024;2023-06-22T05:02:38;4.97;;;2.10;;
72127;SDS011;60000;51.030;7.024;2023-06-22T05:05:04;4.27;;;1.70;;
72127;SDS011;60000;51.030;7.024;2023-06-22T05:07:33;3.95;;;1.70;;
72127;SDS011;60000;51.030;7.024;2023-06-22T05:09:59;4.75;;;1.80;;
72127;SDS011;60000;51.030;7.024;2023-06-22T05:12:29;4.90;;;2.00;;
72127;SDS011;60000;51.030;7.024;2023-06-22T05:14:54;5.30;;;2.17;;
72127;SDS011;60000;51.030;7.024;2023-06-22T05:17:20;4.32;;;1.90;;
72127;SDS011;60000;51.030;7.024;2023-06-22T05:19:45;4.53;;;1.87;;
72127;SDS011;60000;51.030;7.024;2023-06-22T05:22:16;5.43;;;2.28;;
72127;SDS011;60000;51.030;7.024;2023-06-22T05:24:41;5.90;;;2.53;;
72127;SDS011;60000;51.030;7.024;2023-06-22T05:27:07;5.60;;;2.40;;
72127;SDS011;60000;51.030;7.024;2023-06-22T05:29:33;5.22;;;2.33;;
72127;SDS011;60000;51.030;7.024;2023-06-22T05:31:58;7.00;;;3.00;;
72127;SDS011;60000;51.030;7.024;2023-06-22T05:34:24;6.83;;;2.67;;
72127;SDS011;60000;51.030;7.024;2023-06-22T05:36:49;5.77;;;2.60;;
72127;SDS011;60000;51.030;7.024;2023-06-22T05:39:14;6.60;;;2.73;;
72127;SDS011;60000;51.030;7.024;2023-06-22T05:41:40;6.85;;;2.85;;
72127;SDS011;60000;51.030;7.024;2023-06-22T05:44:06;5.95;;;2.80;;
72127;SDS011;60000;51.030;7.024;2023-06-22T05:46:32;5.17;;;2.30;;
72127;SDS011;60000;51.030;7.024;2023-06-22T05:48:57;5.07;;;2.43;;
72127;SDS011;60000;51.030;7.024;2023-06-22T05:51:22;9.73;;;3.30;;
72127;SDS011;60000;51.030;7.024;2023-06-22T05:53:48;6.82;;;3.33;;
72127;SDS011;60000;51.030;7.024;2023-06-22T05:56:15;6.50;;;2.87;;
72127;SDS011;60000;51.030;7.024;2023-06-22T05:58:40;6.57;;;2.95;;
72127;SDS011;60000;51.030;7.024;2023-06-22T06:01:06;8.50;;;3.77;;
72127;SDS011;60000;51.030;7.024;2023-06-22T06:03:31;6.38;;;3.17;;
72127;SDS011;60000;51.030;7.024;2023-06-22T06:05:57;7.67;;;3.33;;
72127;SDS011;60000;51.030;7.024;2023-06-22T06:08:22;6.80;;;3.20;;
72127;SDS011;60000;51.030;7.024;2023-06-22T06:10:47;7.93;;;3.27;;
72127;SDS011;60000;51.030;7.024;2023-06-22T06:13:13;6.40;;;3.33;;
72127;SDS011;60000;51.030;7.024;2023-06-22T06:15:38;7.77;;;3.27;;
72127;SDS011;60000;51.030;7.024;2023-06-22T06:18:03;6.93;;;3.30;;
72127;SDS011;60000;51.030;7.024;2023-06-22T06:20:30;6.82;;;3.88;;
72127;SDS011;60000;51.030;7.024;2023-06-22T06:22:56;6.90;;;3.45;;
72127;SDS011;60000;51.030;7.024;2023-06-22T06:25:22;8.18;;;4.13;;
72127;SDS011;60000;51.030;7.024;2023-06-22T06:27:48;6.97;;;4.30;;
72127;SDS011;60000;51.030;7.024;2023-06-22T06:30:15;8.98;;;4.72;;
72127;SDS011;60000;51.030;7.024;2023-06-22T06:32:41;8.95;;;4.50;;
72127;SDS011;60000;51.030;7.024;2023-06-22T06:35:08;8.30;;;5.13;;
72127;SDS011;60000;51.030;7.024;2023-06-22T06:37:38;8.27;;;5.07;;
72127;SDS011;60000;51.030;7.024;2023-06-22T06:40:05;8.00;;;5.20;;
72127;SDS011;60000;51.030;7.024;2023-06-22T06:42:35;8.43;;;4.95;;
72127;SDS011;60000;51.030;7.024;2023-06-22T06:45:02;8.25;;;4.82;;
72127;SDS011;60000;51.030;7.024;2023-06-22T06:47:28;7.47;;;5.10;;
72127;SDS011;60000;51.030;7.024;2023-06-22T06:49:54;7.27;;;4.30;;
72127;SDS011;60000;51.030;7.024;2023-06-22T06:52:19;6.60;;;4.37;;
72127;SDS011;60000;51.030;7.024;2023-06-22T06:54:45;7.20;;;4.30;;
72127;SDS011;60000;51.030;7.024;2023-06-22T06:57:10;7.32;;;4.35;;
72127;SDS011;60000;51.030;7.024;2023-06-22T06:59:38;7.47;;;4.40;;
72127;SDS011;60000;51.030;7.024;2023-06-22T07:02:04;7.82;;;4.75;;
72127;SDS011;60000;51.030;7.024;2023-06-22T07:04:29;7.77;;;4.80;;
72127;SDS011;60000;51.030;7.024;2023-06-22T07:06:55;7.60;;;4.15;;
72127;SDS011;60000;51.030;7.024;2023-06-22T07:09:20;7.67;;;4.13;;
72127;SDS011;60000;51.030;7.024;2023-06-22T07:11:46;9.23;;;4.73;;
72127;SDS011;60000;51.030;7.024;2023-06-22T07:14:11;8.53;;;5.07;;
72127;SDS011;60000;51.030;7.024;2023-06-22T07:16:36;7.97;;;4.30;;
72127;SDS011;60000;51.030;7.024;2023-06-22T07:19:02;7.83;;;3.87;;
72127;SDS011;60000;51.030;7.024;2023-06-22T07:21:27;7.40;;;4.43;;
72127;SDS011;60000;51.030;7.024;2023-06-22T07:23:52;7.13;;;3.97;;
72127;SDS011;60000;51.030;7.024;2023-06-22T07:26:19;6.75;;;4.32;;
72127;SDS011;60000;51.030;7.024;2023-06-22T07:28:44;7.17;;;3.70;;
72127;SDS011;60000;51.030;7.024;2023-06-22T07:31:09;6.30;;;3.73;;
72127;SDS011;60000;51.030;7.024;2023-06-22T07:33:35;7.93;;;3.90;;
72127;SDS011;60000;51.030;7.024;2023-06-22T07:36:00;6.67;;;3.53;;
72127;SDS011;60000;51.030;7.024;2023-06-22T07:38:26;9.32;;;5.00;;
72127;SDS011;60000;51.030;7.024;2023-06-22T07:40:51;7.50;;;4.33;;
72127;SDS011;60000;51.030;7.024;2023-06-22T07:43:18;7.70;;;4.20;;
72127;SDS011;60000;51.030;7.024;2023-06-22T07:45:47;8.90;;;4.83;;
72127;SDS011;60000;51.030;7.024;2023-06-22T07:48:20;8.13;;;4.45;;
72127;SDS011;60000;51.030;7.024;2023-06-22T07:50:46;7.32;;;4.50;;
72127;SDS011;60000;51.030;7.024;2023-06-22T07:53:11;9.93;;;4.50;;
72127;SDS011;60000;51.030;7.024;2023-06-22T07:55:37;8.00;;;4.77;;
72127;SDS011;60000;51.030;7.024;2023-06-22T07:58:02;10.47;;;4.67;;
72127;SDS011;60000;51.030;7.024;2023-06-22T08:00:27;7.37;;;4.10;;
72127;SDS011;60000;51.030;7.024;2023-06-22T08:02:53;7.20;;;4.10;;
72127;SDS011;60000;51.030;7.024;2023-06-22T08:05:18;6.67;;;3.90;;
72127;SDS011;60000;51.030;7.024;2023-06-22T08:07:44;6.97;;;4.03;;
72127;SDS011;60000;51.030;7.024;2023-06-22T08:10:12;7.03;;;3.90;;
72127;SDS011;60000;51.030;7.024;2023-06-22T08:12:39;6.65;;;3.90;;
72127;SDS011;60000;51.030;7.024;2023-06-22T08:15:04;9.40;;;4.53;;
72127;SDS011;60000;51.030;7.024;2023-06-22T08:17:31;9.00;;;4.10;;
72127;SDS011;60000;51.030;7.024;2023-06-22T08:19:56;7.00;;;3.88;;
72127;SDS011;60000;51.030;7.024;2023-06-22T08:22:22;7.73;;;4.07;;
72127;SDS011;60000;51.030;7.024;2023-06-22T08:24:47;7.23;;;4.20;;
72127;SDS011;60000;51.030;7.024;2023-06-22T08:27:13;6.37;;;3.60;;
72127;SDS011;60000;51.030;7.024;2023-06-22T08:29:39;7.80;;;4.33;;
72127;SDS011;60000;51.030;7.024;2023-06-22T08:32:07;7.75;;;4.20;;
72127;SDS011;60000;51.030;7.024;2023-06-22T08:34:35;6.47;;;3.90;;
72127;SDS011;60000;51.030;7.024;2023-06-22T08:37:01;7.47;;;4.32;;
72127;SDS011;60000;51.030;7.024;2023-06-22T08:39:31;7.47;;;4.10;;
72127;SDS011;60000;51.030;7.024;2023-06-22T08:41:57;8.57;;;4.27;;
72127;SDS011;60000;51.030;7.024;2023-06-22T08:44:22;6.90;;;4.50;;
72127;SDS011;60000;51.030;7.024;2023-06-22T08:46:47;7.07;;;4.10;;
72127;SDS011;60000;51.030;7.024;2023-06-22T08:49:13;7.57;;;4.17;;
72127;SDS011;60000;51.030;7.024;2023-06-22T08:51:38;7.20;;;4.23;;
72127;SDS011;60000;51.030;7.024;2023-06-22T08:54:04;6.57;;;3.87;;
72127;SDS011;60000;51.030;7.024;2023-06-22T08:56:29;7.32;;;4.40;;
72127;SDS011;60000;51.030;7.024;2023-06-22T08:58:55;7.07;;;4.03;;
72127;SDS011;60000;51.030;7.024;2023-06-22T09:01:21;7.40;;;4.70;;
72127;SDS011;60000;51.030;7.024;2023-06-22T09:03:47;7.65;;;4.78;;
72127;SDS011;60000;51.030;7.024;2023-06-22T09:06:20;7.85;;;4.40;;
72127;SDS011;60000;51.030;7.024;2023-06-22T09:08:46;7.40;;;3.90;;
72127;SDS011;60000;51.030;7.024;2023-06-22T09:11:12;7.60;;;4.30;;
72127;SDS011;60000;51.030;7.024;2023-06-22T09:13:37;7.43;;;4.60;;
72127;SDS011;60000;51.030;7.024;2023-06-22T09:16:03;6.80;;;3.90;;
72127;SDS011;60000;51.030;7.024;2023-06-22T09:18:28;6.93;;;4.00;;
72127;SDS011;60000;51.030;7.024;2023-06-22T09:20:54;8.03;;;4.20;;
72127;SDS011;60000;51.030;7.024;2023-06-22T09:23:19;9.43;;;4.93;;
72127;SDS011;60000;51.030;7.024;2023-06-22T09:25:44;7.07;;;4.20;;
72127;SDS011;60000;51.030;7.024;2023-06-22T09:28:11;7.97;;;4.57;;
72127;SDS011;60000;51.030;7.024;2023-06-22T09:30:37;7.45;;;4.38;;
72127;SDS011;60000;51.030;7.024;2023-06-22T09:33:02;7.10;;;4.37;;
72127;SDS011;60000;51.030;7.024;2023-06-22T09:35:27;8.60;;;4.70;;
72127;SDS011;60000;51.030;7.024;2023-06-22T09:37:53;6.90;;;4.30;;
72127;SDS011;60000;51.030;7.024;2023-06-22T09:40:18;7.30;;;4.47;;
72127;SDS011;60000;51.030;7.024;2023-06-22T09:42:43;7.73;;;4.30;;
72127;SDS011;60000;51.030;7.024;2023-06-22T09:45:09;9.03;;;4.90;;
72127;SDS011;60000;51.030;7.024;2023-06-22T09:47:34;6.47;;;3.97;;
72127;SDS011;60000;51.030;7.024;2023-06-22T09:50:00;6.30;;;3.70;;
72127;SDS011;60000;51.030;7.024;2023-06-22T09:52:25;6.93;;;3.93;;
72127;SDS011;60000;51.030;7.024;2023-06-22T09:54:51;8.63;;;4.22;;
72127;SDS011;60000;51.030;7.024;2023-06-22T09:57:16;6.77;;;4.03;;
72127;SDS011;60000;51.030;7.024;2023-06-22T09:59:41;7.57;;;4.20;;
72127;SDS011;60000;51.030;7.024;2023-06-22T10:02:07;7.30;;;3.90;;
72127;SDS011;60000;51.030;7.024;2023-06-22T10:04:33;6.90;;;3.88;;
72127;SDS011;60000;51.030;7.024;2023-06-22T10:06:59;6.40;;;3.90;;
72127;SDS011;60000;51.030;7.024;2023-06-22T10:09:24;8.50;;;4.77;;
72127;SDS011;60000;51.030;7.024;2023-06-22T10:11:50;6.70;;;3.70;;
72127;SDS011;60000;51.030;7.024;2023-06-22T10:14:15;6.77;;;3.60;;
72127;SDS011;60000;51.030;7.024;2023-06-22T10:16:41;7.63;;;4.45;;
72127;SDS011;60000;51.030;7.024;2023-06-22T10:19:07;6.95;;;3.70;;
72127;SDS011;60000;51.030;7.024;2023-06-22T10:21:32;7.53;;;4.00;;
72127;SDS011;60000;51.030;7.024;2023-06-22T10:23:57;7.00;;;4.17;;
72127;SDS011;60000;51.030;7.024;2023-06-22T10:26:24;8.10;;;4.53;;
72127;SDS011;60000;51.030;7.024;2023-06-22T10:28:49;7.07;;;4.10;;
72127;SDS011;60000;51.030;7.024;2023-06-22T10:31:15;6.80;;;4.00;;
72127;SDS011;60000;51.030;7.024;2023-06-22T10:33:41;6.82;;;3.70;;
72127;SDS011;60000;51.030;7.024;2023-06-22T10:36:08;7.27;;;4.30;;
72127;SDS011;60000;51.030;7.024;2023-06-22T10:38:34;7.90;;;4.00;;
72127;SDS011;60000;51.030;7.024;2023-06-22T10:40:59;7.20;;;3.83;;
72127;SDS011;60000;51.030;7.024;2023-06-22T10:43:25;7.13;;;4.10;;
72127;SDS011;60000;51.030;7.024;2023-06-22T10:45:50;8.23;;;4.23;;
72127;SDS011;60000;51.030;7.024;2023-06-22T10:48:15;8.93;;;4.50;;
72127;SDS011;60000;51.030;7.024;2023-06-22T10:50:41;10.98;;;5.47;;
72127;SDS011;60000;51.030;7.024;2023-06-22T10:53:06;10.87;;;5.77;;
72127;SDS011;60000;51.030;7.024;2023-06-22T10:55:31;9.60;;;5.33;;
72127;SDS011;60000;51.030;7.024;2023-06-22T10:57:56;10.00;;;5.23;;
72127;SDS011;60000;51.030;7.024;2023-06-22T11:00:22;10.73;;;6.10;;
72127;SDS011;60000;51.030;7.024;2023-06-22T11:02:47;10.13;;;6.20;;
72127;SDS011;60000;51.030;7.024;2023-06-22T11:05:12;11.17;;;6.27;;
72127;SDS011;60000;51.030;7.024;2023-06-22T11:07:41;11.83;;;6.33;;
72127;SDS011;60000;51.030;7.024;2023-06-22T11:10:08;13.27;;;7.15;;
72127;SDS011;60000;51.030;7.024;2023-06-22T11:12:33;9.70;;;5.53;;
72127;SDS011;60000;51.030;7.024;2023-06-22T11:14:59;12.13;;;6.10;;
72127;SDS011;60000;51.030;7.024;2023-06-22T11:17:24;10.20;;;5.93;;
72127;SDS011;60000;51.030;7.024;2023-06-22T11:19:50;9.07;;;6.00;;
72127;SDS011;60000;51.030;7.024;2023-06-22T11:22:15;10.73;;;6.20;;
72127;SDS011;60000;51.030;7.024;2023-06-22T11:24:41;13.30;;;7.83;;
72127;SDS011;60000;51.030;7.024;2023-06-22T11:27:06;15.83;;;7.70;;
72127;SDS011;60000;51.030;7.024;2023-06-22T11:29:32;14.47;;;7.70;;
72127;SDS011;60000;51.030;7.024;2023-06-22T11:31:57;12.00;;;6.43;;
72127;SDS011;60000;51.030;7.024;2023-06-22T11:34:22;12.70;;;6.67;;
72127;SDS011;60000;51.030;7.024;2023-06-22T11:36:47;10.73;;;5.80;;
72127;SDS011;60000;51.030;7.024;2023-06-22T11:39:13;11.93;;;6.53;;
72127;SDS011;60000;51.030;7.024;2023-06-22T11:41:39;12.30;;;7.63;;
72127;SDS011;60000;51.030;7.024;2023-06-22T11:44:05;17.07;;;9.33;;
72127;SDS011;60000;51.030;7.024;2023-06-22T11:46:30;13.87;;;7.10;;
72127;SDS011;60000;51.030;7.024;2023-06-22T11:48:57;13.75;;;8.30;;
72127;SDS011;60000;51.030;7.024;2023-06-22T11:51:22;12.53;;;8.50;;
72127;SDS011;60000;51.030;7.024;2023-06-22T11:53:48;13.73;;;7.80;;
72127;SDS011;60000;51.030;7.024;2023-06-22T11:56:13;12.70;;;8.83;;
72127;SDS011;60000;51.030;7.024;2023-06-22T11:58:38;14.00;;;8.77;;
72127;SDS011;60000;51.030;7.024;2023-06-22T12:01:03;11.07;;;7.37;;
72127;SDS011;60000;51.030;7.024;2023-06-22T12:03:29;13.43;;;7.40;;
72127;SDS011;60000;51.030;7.024;2023-06-22T12:05:55;11.10;;;6.78;;
72127;SDS011;60000;51.030;7.024;2023-06-22T12:08:20;10.73;;;6.43;;
72127;SDS011;60000;51.030;7.024;2023-06-22T12:10:46;11.57;;;6.85;;
72127;SDS011;60000;51.030;7.024;2023-06-22T12:13:12;14.43;;;8.30;;
72127;SDS011;60000;51.030;7.024;2023-06-22T12:15:37;13.20;;;8.00;;
72127;SDS011;60000;51.030;7.024;2023-06-22T12:18:03;11.80;;;6.80;;
72127;SDS011;60000;51.030;7.024;2023-06-22T12:20:28;9.30;;;5.93;;
72127;SDS011;60000;51.030;7.024;2023-06-22T12:22:53;9.87;;;5.67;;
72127;SDS011;60000;51.030;7.024;2023-06-22T12:25:21;8.27;;;5.20;;
72127;SDS011;60000;51.030;7.024;2023-06-22T12:27:47;8.60;;;5.33;;
72127;SDS011;60000;51.030;7.024;2023-06-22T12:30:12;8.80;;;5.47;;
72127;SDS011;60000;51.030;7.024;2023-06-22T12:32:37;9.30;;;5.80;;
72127;SDS011;60000;51.030;7.024;2023-06-22T12:35:03;12.17;;;6.63;;
72127;SDS011;60000;51.030;7.024;2023-06-22T12:37:29;10.63;;;5.90;;
72127;SDS011;60000;51.030;7.024;2023-06-22T12:39:56;8.73;;;5.17;;
72127;SDS011;60000;51.030;7.024;2023-06-22T12:42:22;9.15;;;5.28;;
72127;SDS011;60000;51.030;7.024;2023-06-22T12:44:47;9.07;;;5.57;;
72127;SDS011;60000;51.030;7.024;2023-06-22T12:47:12;9.20;;;5.40;;
72127;SDS011;60000;51.030;7.024;2023-06-22T12:49:38;9.07;;;5.23;;
72127;SDS011;60000;51.030;7.024;2023-06-22T12:52:08;10.07;;;6.10;;
72127;SDS011;60000;51.030;7.024;2023-06-22T12:54:34;9.57;;;5.75;;
72127;SDS011;60000;51.030;7.024;2023-06-22T12:56:59;7.90;;;4.77;;
72127;SDS011;60000;51.030;7.024;2023-06-22T12:59:24;7.83;;;4.37;;
72127;SDS011;60000;51.030;7.024;2023-06-22T13:01:50;7.87;;;4.40;;
72127;SDS011;60000;51.030;7.024;2023-06-22T13:04:15;8.97;;;4.83;;
72127;SDS011;60000;51.030;7.024;2023-06-22T13:06:47;7.88;;;4.32;;
72127;SDS011;60000;51.030;7.024;2023-06-22T13:09:13;7.77;;;3.77;;
72127;SDS011;60000;51.030;7.024;2023-06-22T13:11:38;6.68;;;3.40;;
72127;SDS011;60000;51.030;7.024;2023-06-22T13:14:04;8.30;;;4.07;;
72127;SDS011;60000;51.030;7.024;2023-06-22T13:16:29;7.88;;;4.38;;
72127;SDS011;60000;51.030;7.024;2023-06-22T13:18:55;6.40;;;3.13;;
72127;SDS011;60000;51.030;7.024;2023-06-22T13:21:20;7.10;;;3.30;;
72127;SDS011;60000;51.030;7.024;2023-06-22T13:23:45;6.40;;;3.07;;
72127;SDS011;60000;51.030;7.024;2023-06-22T13:26:10;6.47;;;3.00;;
72127;SDS011;60000;51.030;7.024;2023-06-22T13:28:36;6.33;;;3.20;;
72127;SDS011;60000;51.030;7.024;2023-06-22T13:31:01;7.33;;;3.50;;
72127;SDS011;60000;51.030;7.024;2023-06-22T13:33:26;6.23;;;2.50;;
72127;SDS011;60000;51.030;7.024;2023-06-22T13:35:52;6.20;;;2.90;;
72127;SDS011;60000;51.030;7.024;2023-06-22T13:38:17;6.10;;;2.80;;
72127;SDS011;60000;51.030;7.024;2023-06-22T13:40:42;6.40;;;2.80;;
72127;SDS011;60000;51.030;7.024;2023-06-22T13:43:08;5.73;;;2.80;;
72127;SDS011;60000;51.030;7.024;2023-06-22T13:45:34;6.00;;;2.90;;
72127;SDS011;60000;51.030;7.024;2023-06-22T13:47:59;7.07;;;3.17;;
72127;SDS011;60000;51.030;7.024;2023-06-22T13:50:24;6.30;;;3.17;;
72127;SDS011;60000;51.030;7.024;2023-06-22T13:52:50;6.40;;;3.40;;
72127;SDS011;60000;51.030;7.024;2023-06-22T13:55:15;5.87;;;2.50;;
72127;SDS011;60000;51.030;7.024;2023-06-22T13:57:40;5.80;;;2.88;;
72127;SDS011;60000;51.030;7.024;2023-06-22T14:00:07;5.50;;;2.93;;
72127;SDS011;60000;51.030;7.024;2023-06-22T14:02:36;5.53;;;2.67;;
72127;SDS011;60000;51.030;7.024;2023-06-22T14:05:01;6.00;;;3.10;;
72127;SDS011;60000;51.030;7.024;2023-06-22T14:07:27;7.28;;;3.60;;
72127;SDS011;60000;51.030;7.024;2023-06-22T14:09:52;6.40;;;3.30;;
72127;SDS011;60000;51.030;7.024;2023-06-22T14:12:18;7.37;;;3.77;;
72127;SDS011;60000;51.030;7.024;2023-06-22T14:14:44;8.35;;;3.83;;
72127;SDS011;60000;51.030;7.024;2023-06-22T14:17:09;9.80;;;3.60;;
72127;SDS011;60000;51.030;7.024;2023-06-22T14:19:35;6.43;;;3.67;;
72127;SDS011;60000;51.030;7.024;2023-06-22T14:22:00;7.50;;;3.30;;
72127;SDS011;60000;51.030;7.024;2023-06-22T14:24:26;5.70;;;3.00;;
72127;SDS011;60000;51.030;7.024;2023-06-22T14:26:52;6.93;;;3.73;;
72127;SDS011;60000;51.030;7.024;2023-06-22T14:29:17;8.23;;;3.27;;
72127;SDS011;60000;51.030;7.024;2023-06-22T14:31:44;6.43;;;3.03;;
72127;SDS011;60000;51.030;7.024;2023-06-22T14:34:11;7.97;;;2.95;;
72127;SDS011;60000;51.030;7.024;2023-06-22T14:36:36;6.17;;;3.13;;
72127;SDS011;60000;51.030;7.024;2023-06-22T14:39:01;5.83;;;2.80;;
72127;SDS011;60000;51.030;7.024;2023-06-22T14:41:26;6.77;;;3.00;;
72127;SDS011;60000;51.030;7.024;2023-06-22T14:43:52;6.73;;;3.10;;
72127;SDS011;60000;51.030;7.024;2023-06-22T14:46:18;5.37;;;2.70;;
72127;SDS011;60000;51.030;7.024;2023-06-22T14:48:44;6.77;;;2.97;;
72127;SDS011;60000;51.030;7.024;2023-06-22T14:51:10;6.20;;;3.10;;
72127;SDS011;60000;51.030;7.024;2023-06-22T14:53:36;7.07;;;3.30;;
72127;SDS011;60000;51.030;7.024;2023-06-22T14:56:02;6.00;;;3.20;;
72127;SDS011;60000;51.030;7.024;2023-06-22T14:58:28;7.88;;;3.40;;
72127;SDS011;60000;51.030;7.024;2023-06-22T15:00:58;5.80;;;3.00;;
72127;SDS011;60000;51.030;7.024;2023-06-22T15:03:23;6.63;;;3.53;;
72127;SDS011;60000;51.030;7.024;2023-06-22T15:05:52;6.50;;;3.50;;
72127;SDS011;60000;51.030;7.024;2023-06-22T15:08:18;6.93;;;3.60;;
72127;SDS011;60000;51.030;7.024;2023-06-22T15:10:44;7.30;;;3.60;;
72127;SDS011;60000;51.030;7.024;2023-06-22T15:13:09;7.57;;;4.10;;
72127;SDS011;60000;51.030;7.024;2023-06-22T15:15:34;7.30;;;4.00;;
72127;SDS011;60000;51.030;7.024;2023-06-22T15:18:00;7.63;;;4.13;;
72127;SDS011;60000;51.030;7.024;2023-06-22T15:20:25;10.60;;;4.17;;
72127;SDS011;60000;51.030;7.024;2023-06-22T15:22:51;9.63;;;4.17;;
72127;SDS011;60000;51.030;7.024;2023-06-22T15:25:16;8.30;;;4.47;;
72127;SDS011;60000;51.030;7.024;2023-06-22T15:27:41;7.50;;;4.33;;
72127;SDS011;60000;51.030;7.024;2023-06-22T15:30:07;9.00;;;4.40;;
72127;SDS011;60000;51.030;7.024;2023-06-22T15:32:32;8.97;;;4.23;;
72127;SDS011;60000;51.030;7.024;2023-06-22T15:34:58;8.00;;;4.43;;
72127;SDS011;60000;51.030;7.024;2023-06-22T15:37:23;9.73;;;4.17;;
72127;SDS011;60000;51.030;7.024;2023-06-22T15:39:48;8.10;;;4.30;;
72127;SDS011;60000;51.030;7.024;2023-06-22T15:42:14;11.10;;;4.60;;
72127;SDS011;60000;51.030;7.024;2023-06-22T15:44:39;7.33;;;3.90;;
72127;SDS011;60000;51.030;7.024;2023-06-22T15:47:05;9.33;;;4.10;;
72127;SDS011;60000;51.030;7.024;2023-06-22T15:49:30;8.18;;;4.28;;